createdAt,value
2022-09-23T00:03:21.576Z,6.07
2022-09-23T00:06:44.108Z,6.04
2022-09-23T00:10:07.268Z,5.99
2022-09-23T00:13:29.915Z,5.97
2022-09-23T00:16:51.545Z,5.97
2022-09-23T00:20:13.328Z,5.96
2022-09-23T00:23:35.221Z,5.95
2022-09-23T00:26:56.727Z,5.90
2022-09-23T00:30:19.469Z,5.86
2022-09-23T00:33:41.526Z,5.82
2022-09-23T00:37:02.730Z,5.78
2022-09-23T00:40:23.923Z,5.76
2022-09-23T00:43:47.403Z,5.73
2022-09-23T00:47:15.143Z,5.72
2022-09-23T00:50:38.755Z,5.72
2022-09-23T00:54:00.616Z,5.71
2022-09-23T00:57:22.978Z,5.72
2022-09-23T01:00:46.394Z,5.70
2022-09-23T01:04:09.869Z,5.63
2022-09-23T01:07:31.509Z,5.62
2022-09-23T01:11:01.442Z,5.61
2022-09-23T01:14:35.039Z,5.59
2022-09-23T01:18:09.028Z,5.54
2022-09-23T01:21:43.452Z,5.46
2022-09-23T01:25:34.975Z,5.43
2022-09-23T01:29:20.087Z,5.40
2022-09-23T01:32:56.717Z,5.36
2022-09-23T01:36:25.015Z,5.33
2022-09-23T01:39:58.128Z,5.29
2022-09-23T01:43:26.091Z,5.27
2022-09-23T01:46:51.635Z,5.26
2022-09-23T01:50:36.643Z,5.20
2022-09-23T01:54:07.101Z,5.18
2022-09-23T01:57:31.873Z,5.12
2022-09-23T02:00:59.421Z,5.11
2022-09-23T02:04:26.873Z,5.11
2022-09-23T02:07:55.172Z,5.05
2022-09-23T02:11:18.161Z,5.01
2022-09-23T02:14:43.882Z,4.97
2022-09-23T02:18:10.926Z,4.97
2022-09-23T02:21:36.719Z,4.97
2022-09-23T02:24:59.600Z,4.93
2022-09-23T02:28:26.647Z,4.89
2022-09-23T02:31:56.650Z,4.86
2022-09-23T02:35:25.539Z,4.84
2022-09-23T02:38:53.616Z,4.86
2022-09-23T02:42:21.704Z,4.83
2022-09-23T02:45:43.654Z,4.81
2022-09-23T02:49:11.176Z,4.78
2022-09-23T02:52:33.490Z,4.76
2022-09-23T02:55:55.041Z,4.75
2022-09-23T02:59:20.078Z,4.73
2022-09-23T03:03:00.981Z,4.69
2022-09-23T03:06:30.398Z,4.66
2022-09-23T03:09:58.467Z,4.62
2022-09-23T03:13:29.960Z,4.60
2022-09-23T03:17:00.449Z,4.58
2022-09-23T03:20:28.231Z,4.56
2022-09-23T03:23:51.386Z,4.54
2022-09-23T03:27:17.838Z,4.51
2022-09-23T03:30:42.180Z,4.47
2022-09-23T03:34:10.478Z,4.46
2022-09-23T03:37:34.909Z,4.44
2022-09-23T03:40:59.328Z,4.42
2022-09-23T03:44:23.512Z,4.40
2022-09-23T03:47:45.564Z,4.39
2022-09-23T03:51:22.111Z,4.37
2022-09-23T03:54:43.407Z,4.35
2022-09-23T03:58:05.283Z,4.32
2022-09-23T04:01:27.198Z,4.30
2022-09-23T04:04:49.175Z,4.27
2022-09-23T04:08:12.107Z,4.25
2022-09-23T04:11:33.700Z,4.20
2022-09-23T04:14:55.186Z,4.22
2022-09-23T04:18:16.614Z,4.21
2022-09-23T04:21:37.982Z,4.18
2022-09-23T04:25:00.563Z,4.15
2022-09-23T04:28:22.627Z,4.14
2022-09-23T04:31:44.163Z,4.11
2022-09-23T04:35:07.979Z,4.09
2022-09-23T04:38:29.276Z,4.09
2022-09-23T04:41:51.849Z,4.11
2022-09-23T04:45:13.133Z,4.11
2022-09-23T04:48:35.084Z,4.10
2022-09-23T04:51:56.860Z,4.07
2022-09-23T04:55:18.287Z,4.06
2022-09-23T04:58:41.430Z,4.03
2022-09-23T05:02:02.942Z,4.01
2022-09-23T05:05:24.758Z,4.01
2022-09-23T05:08:48.912Z,4.02
2022-09-23T05:12:10.260Z,4.00
2022-09-23T05:15:32.845Z,3.99
2022-09-23T05:18:55.279Z,3.99
2022-09-23T05:22:16.368Z,3.98
2022-09-23T05:25:38.500Z,3.97
2022-09-23T05:29:00.730Z,3.96
2022-09-23T05:32:23.884Z,3.94
2022-09-23T05:35:48.399Z,3.95
2022-09-23T05:39:09.936Z,4.01
2022-09-23T05:42:31.975Z,4.05
2022-09-23T05:46:05.872Z,4.06
2022-09-23T05:49:55.362Z,4.09
2022-09-23T05:53:12.254Z,4.11
2022-09-23T05:56:35.300Z,4.13
2022-09-23T05:59:56.714Z,4.11
2022-09-23T06:03:20.125Z,4.10
2022-09-23T06:06:44.064Z,4.17
2022-09-23T06:10:06.921Z,4.30
2022-09-23T06:13:28.153Z,4.40
2022-09-23T06:16:49.451Z,4.54
2022-09-23T06:20:11.293Z,4.65
2022-09-23T06:23:37.499Z,4.73
2022-09-23T06:27:02.516Z,4.81
2022-09-23T06:30:24.730Z,4.90
2022-09-23T06:33:46.958Z,4.98
2022-09-23T06:37:17.284Z,5.07
2022-09-23T06:40:42.626Z,5.16
2022-09-23T06:44:04.721Z,5.24
2022-09-23T06:47:26.197Z,5.36
2022-09-23T06:50:48.376Z,5.48
2022-09-23T06:54:11.006Z,5.55
2022-09-23T06:57:34.627Z,5.61
2022-09-23T07:01:02.184Z,5.74
2022-09-23T07:04:28.619Z,5.91
2022-09-23T07:07:51.175Z,6.04
2022-09-23T07:11:13.327Z,6.18
2022-09-23T07:14:36.649Z,6.27
2022-09-23T07:17:58.604Z,6.39
2022-09-23T07:21:20.706Z,6.49
2022-09-23T07:24:42.310Z,6.63
2022-09-23T07:28:03.660Z,6.72
2022-09-23T07:31:38.722Z,6.83
2022-09-23T07:35:01.076Z,6.96
2022-09-23T07:38:30.202Z,7.08
2022-09-23T07:41:52.072Z,7.23
2022-09-23T07:45:13.383Z,7.33
2022-09-23T07:48:36.507Z,7.46
2022-09-23T07:51:58.152Z,7.60
2022-09-23T07:55:21.085Z,7.74
2022-09-23T07:58:43.198Z,7.86
2022-09-23T08:02:05.260Z,8.01
2022-09-23T08:05:28.938Z,8.15
2022-09-23T08:08:53.323Z,8.29
2022-09-23T08:12:19.974Z,8.43
2022-09-23T08:15:44.160Z,8.55
2022-09-23T08:22:33.751Z,8.82
2022-09-23T08:26:00.430Z,8.96
2022-09-23T08:29:24.055Z,9.09
2022-09-23T08:32:46.068Z,9.24
2022-09-23T08:36:08.925Z,9.37
2022-09-23T08:39:32.007Z,9.50
2022-09-23T08:42:53.533Z,9.62
2022-09-23T08:46:22.566Z,9.76
2022-09-23T08:49:55.001Z,9.91
2022-09-23T08:53:24.626Z,10.07
2022-09-23T08:56:52.180Z,10.24
2022-09-23T09:00:21.319Z,10.38
2022-09-23T09:03:47.849Z,10.56
2022-09-23T09:07:35.869Z,10.72
2022-09-23T09:10:58.803Z,10.88
2022-09-23T09:14:27.447Z,11.00
2022-09-23T09:18:01.279Z,11.18
2022-09-23T09:21:27.525Z,11.38
2022-09-23T09:24:50.698Z,11.55
2022-09-23T09:28:19.886Z,11.66
2022-09-23T09:31:45.529Z,11.81
2022-09-23T09:35:20.115Z,11.97
2022-09-23T09:38:41.431Z,12.11
2022-09-23T09:42:04.721Z,12.24
2022-09-23T09:45:40.874Z,12.38
2022-09-23T09:49:11.311Z,12.53
2022-09-23T09:52:33.035Z,12.65
2022-09-23T09:56:05.298Z,12.79
2022-09-23T09:59:29.674Z,12.90
2022-09-23T10:02:54.003Z,13.01
2022-09-23T10:06:20.912Z,13.06
2022-09-23T10:09:50.059Z,13.21
2022-09-23T10:13:16.402Z,13.32
2022-09-23T10:16:37.916Z,13.40
2022-09-23T10:20:02.230Z,13.49
2022-09-23T10:23:29.699Z,13.60
2022-09-23T10:26:58.188Z,13.69
2022-09-23T10:30:24.950Z,13.82
2022-09-23T10:33:50.035Z,13.94
2022-09-23T10:37:18.114Z,14.03
2022-09-23T10:41:01.718Z,14.16
2022-09-23T10:44:54.128Z,14.29
2022-09-23T10:48:27.212Z,14.39
2022-09-23T10:51:56.087Z,14.49
2022-09-23T10:55:28.813Z,14.61
2022-09-23T10:59:27.168Z,14.69
2022-09-23T11:03:20.219Z,14.83
2022-09-23T11:06:53.098Z,14.95
2022-09-23T11:10:46.103Z,15.07
2022-09-23T11:14:28.821Z,15.17
2022-09-23T11:18:40.200Z,15.27
2022-09-23T11:22:20.285Z,15.37
2022-09-23T11:25:52.151Z,15.42
2022-09-23T11:29:43.453Z,15.47
2022-09-23T11:33:27.751Z,15.56
2022-09-23T11:36:54.749Z,15.61
2022-09-23T11:40:20.156Z,15.69
2022-09-23T11:43:43.288Z,15.76
2022-09-23T11:47:09.613Z,15.84
2022-09-23T11:50:36.068Z,15.88
2022-09-23T11:54:02.682Z,15.95
2022-09-23T11:57:44.866Z,15.97
2022-09-23T12:01:23.615Z,16.02
2022-09-23T12:04:58.812Z,16.05
2022-09-23T12:08:29.272Z,16.10
2022-09-23T12:12:00.544Z,16.12
2022-09-23T12:15:52.592Z,16.10
2022-09-23T12:19:30.931Z,16.13
2022-09-23T12:23:07.303Z,16.04
2022-09-23T12:26:29.676Z,16.04
2022-09-23T12:29:57.632Z,16.05
2022-09-23T12:33:26.499Z,16.09
2022-09-23T12:36:48.299Z,16.11
2022-09-23T12:40:31.094Z,16.13
2022-09-23T12:43:55.421Z,16.18
2022-09-23T12:47:39.814Z,16.23
2022-09-23T12:51:16.527Z,16.29
2022-09-23T12:54:39.191Z,16.31
2022-09-23T12:58:02.092Z,16.31
2022-09-23T13:01:26.384Z,16.34
2022-09-23T13:05:16.130Z,16.39
2022-09-23T13:08:40.356Z,16.42
2022-09-23T13:12:03.836Z,16.46
2022-09-23T13:15:31.477Z,16.51
2022-09-23T13:18:54.557Z,16.55
2022-09-23T13:22:56.941Z,16.58
2022-09-23T13:26:18.149Z,16.63
2022-09-23T13:29:44.181Z,16.66
2022-09-23T13:33:13.660Z,16.63
2022-09-23T13:36:45.361Z,16.66
2022-09-23T13:40:18.238Z,16.66
2022-09-23T13:43:42.736Z,16.68
2022-09-23T13:47:04.904Z,16.71
2022-09-23T13:50:34.121Z,16.76
2022-09-23T13:53:58.229Z,16.82
2022-09-23T13:57:27.441Z,16.87
2022-09-23T14:00:50.375Z,16.91
2022-09-23T14:04:24.485Z,16.93
2022-09-23T14:07:47.486Z,16.99
2022-09-23T14:11:08.810Z,17.04
2022-09-23T14:14:31.330Z,17.09
2022-09-23T14:17:55.228Z,17.16
2022-09-23T14:21:28.479Z,17.19
2022-09-23T14:24:52.368Z,17.23
2022-09-23T14:28:17.775Z,17.20
2022-09-23T14:31:39.436Z,17.16
2022-09-23T14:35:19.108Z,17.14
2022-09-23T14:38:51.396Z,17.18
2022-09-23T14:42:15.386Z,17.22
2022-09-23T14:45:39.809Z,17.25
2022-09-23T14:49:06.710Z,17.24
2022-09-23T14:52:28.225Z,17.27
2022-09-23T14:55:53.149Z,17.31
2022-09-23T14:59:27.603Z,17.33
2022-09-23T15:03:00.361Z,17.42
2022-09-23T15:06:24.339Z,17.49
2022-09-23T15:09:46.175Z,17.57
2022-09-23T15:13:10.692Z,17.67
2022-09-23T15:16:33.894Z,17.77
2022-09-23T15:19:58.032Z,17.89
2022-09-23T15:23:38.097Z,17.97
2022-09-23T15:26:59.414Z,17.93
2022-09-23T15:30:21.393Z,17.85
2022-09-23T15:33:45.056Z,17.73
2022-09-23T15:37:06.384Z,17.57
2022-09-23T15:40:29.929Z,17.38
2022-09-23T15:43:52.372Z,17.19
2022-09-23T15:47:18.993Z,17.00
2022-09-23T15:50:42.757Z,16.80
2022-09-23T15:54:04.524Z,16.64
2022-09-23T15:57:26.813Z,16.47
2022-09-23T16:00:56.029Z,16.29
2022-09-23T16:04:18.263Z,16.11
2022-09-23T16:07:41.406Z,15.93
2022-09-23T16:11:02.879Z,15.78
2022-09-23T16:14:24.355Z,15.63
2022-09-23T16:17:46.251Z,15.49
2022-09-23T16:21:09.426Z,15.38
2022-09-23T16:24:32.875Z,15.26
2022-09-23T16:27:55.321Z,15.15
2022-09-23T16:31:17.760Z,15.04
2022-09-23T16:34:39.353Z,14.94
2022-09-23T16:38:00.670Z,14.82
2022-09-23T16:41:24.361Z,14.70
2022-09-23T16:44:45.975Z,14.58
2022-09-23T16:48:07.379Z,14.49
2022-09-23T16:51:30.794Z,14.38
2022-09-23T16:54:53.705Z,14.27
2022-09-23T16:58:16.576Z,14.16
2022-09-23T17:01:55.281Z,14.06
2022-09-23T17:05:18.502Z,13.95
2022-09-23T17:08:41.506Z,13.83
2022-09-23T17:12:15.572Z,13.72
2022-09-23T17:15:39.873Z,13.63
2022-09-23T17:19:07.418Z,13.52
2022-09-23T17:22:30.996Z,13.43
2022-09-23T17:25:52.355Z,13.36
2022-09-23T17:29:14.117Z,13.27
2022-09-23T17:32:38.138Z,13.21
2022-09-23T17:36:01.620Z,13.13
2022-09-23T17:39:23.574Z,13.05
2022-09-23T17:42:45.428Z,12.97
2022-09-23T17:46:08.612Z,12.90
2022-09-23T17:49:35.296Z,12.84
2022-09-23T17:52:56.908Z,12.78
2022-09-23T17:56:19.920Z,12.72
2022-09-23T17:59:41.392Z,12.66
2022-09-23T18:03:02.762Z,12.61
2022-09-23T18:06:27.060Z,12.53
2022-09-23T18:09:48.252Z,12.47
2022-09-23T18:13:09.565Z,12.39
2022-09-23T18:16:32.936Z,12.32
2022-09-23T18:19:54.929Z,12.25
2022-09-23T18:23:17.821Z,12.19
2022-09-23T18:26:39.223Z,12.10
2022-09-23T18:30:01.029Z,12.05
2022-09-23T18:33:23.599Z,12.00
2022-09-23T18:36:45.857Z,11.96
2022-09-23T18:40:14.446Z,11.94
2022-09-23T18:43:40.710Z,11.89
2022-09-23T18:47:03.923Z,11.86
2022-09-23T18:50:39.429Z,11.84
2022-09-23T18:54:03.051Z,11.81
2022-09-23T18:57:25.710Z,11.80
2022-09-23T19:00:47.866Z,11.79
2022-09-23T19:04:09.962Z,11.77
2022-09-23T19:07:31.743Z,11.73
2022-09-23T19:10:56.709Z,11.70
2022-09-23T19:14:19.929Z,11.68
2022-09-23T19:17:41.524Z,11.67
2022-09-23T19:21:06.959Z,11.66
2022-09-23T19:24:28.739Z,11.62
2022-09-23T19:27:50.226Z,11.58
2022-09-23T19:31:16.849Z,11.55
2022-09-23T19:34:38.691Z,11.49
2022-09-23T19:38:01.538Z,11.41
2022-09-23T19:41:23.497Z,11.36
2022-09-23T19:44:45.152Z,11.28
2022-09-23T19:48:09.722Z,11.22
2022-09-23T19:51:33.931Z,11.15
2022-09-23T19:54:55.565Z,11.06
2022-09-23T19:58:17.080Z,11.01
2022-09-23T20:01:38.877Z,10.93
2022-09-23T20:05:02.019Z,10.85
2022-09-23T20:08:23.829Z,10.80
2022-09-23T20:11:45.185Z,10.77
2022-09-23T20:15:07.288Z,10.70
2022-09-23T20:18:29.909Z,10.64
2022-09-23T20:22:12.915Z,10.60
2022-09-23T20:25:54.265Z,10.55
2022-09-23T20:29:16.503Z,10.51
2022-09-23T20:32:40.754Z,10.48
2022-09-23T20:36:05.544Z,10.44
2022-09-23T20:39:29.021Z,10.38
2022-09-23T20:42:50.888Z,10.35
2022-09-23T20:46:14.953Z,10.31
2022-09-23T20:49:37.721Z,10.26
2022-09-23T20:52:59.351Z,10.22
2022-09-23T20:56:23.284Z,10.17
2022-09-23T20:59:45.238Z,10.12
2022-09-23T21:03:06.876Z,10.07
2022-09-23T21:06:28.096Z,10.03
2022-09-23T21:09:49.302Z,10.01
2022-09-23T21:13:12.037Z,10.01
2022-09-23T21:16:33.834Z,10.02
2022-09-23T21:19:55.847Z,10.01
2022-09-23T21:23:17.626Z,9.96
2022-09-23T21:26:39.370Z,9.92
2022-09-23T21:30:02.100Z,9.90
2022-09-23T21:33:23.880Z,9.88
2022-09-23T21:36:46.273Z,9.85
2022-09-23T21:40:26.484Z,9.82
2022-09-23T21:43:49.690Z,9.78
2022-09-23T21:47:12.731Z,9.74
2022-09-23T21:50:40.715Z,9.72
2022-09-23T21:54:02.647Z,9.67
2022-09-23T21:57:25.850Z,9.65
2022-09-23T22:00:48.020Z,9.62
2022-09-23T22:04:17.040Z,9.60
2022-09-23T22:07:39.032Z,9.58
2022-09-23T22:11:02.856Z,9.57
2022-09-23T22:14:25.986Z,9.55
2022-09-23T22:17:48.021Z,9.51
2022-09-23T22:21:10.701Z,9.51
2022-09-23T22:24:31.845Z,9.52
2022-09-23T22:28:10.941Z,9.49
2022-09-23T22:31:58.155Z,9.47
2022-09-23T22:35:20.429Z,9.46
2022-09-23T22:38:43.147Z,9.43
2022-09-23T22:42:05.386Z,9.44
2022-09-23T22:45:27.141Z,9.43
2022-09-23T22:48:53.298Z,9.40
2022-09-23T22:52:16.207Z,9.40
2022-09-23T22:55:38.929Z,9.38
2022-09-23T22:59:01.733Z,9.35
2022-09-23T23:02:23.710Z,9.36
2022-09-23T23:05:45.751Z,9.37
2022-09-23T23:09:08.446Z,9.34
2022-09-23T23:12:31.150Z,9.35
2022-09-23T23:15:52.738Z,9.35
2022-09-23T23:19:17.119Z,9.35
2022-09-23T23:22:38.581Z,9.34
2022-09-23T23:26:09.818Z,9.35
2022-09-23T23:29:33.123Z,9.36
2022-09-23T23:32:54.717Z,9.41
2022-09-23T23:36:19.706Z,9.44
2022-09-23T23:39:41.000Z,9.45
2022-09-23T23:43:05.187Z,9.48
2022-09-23T23:46:29.558Z,9.48
2022-09-23T23:49:51.548Z,9.48
2022-09-23T23:53:12.783Z,9.47
2022-09-23T23:56:34.641Z,9.46
2022-09-23T23:59:56.082Z,9.45
